Time;durP1;ratioP1;P1;durP2;ratioP2;P2;SDS_P1;SDS_P2;PMS_P1;PMS_P2;Temp;Humidity;BMP_temperature;BMP_pressure;BME280_temperature;BME280_humidity;BME280_pressure;Samples;Min_cycle;Max_cycle;Signal;HPM_P1;HPM_P2
2022/04/26 03:37:12;;;;;;;25.05;9.93;;;;;;;;;;5071155;28;20488;-69
2022/04/26 03:40:16;;;;;;;23.38;11.23;;;;;;;;;;5071234;28;20405;-69
2022/04/26 03:43:21;;;;;;;24.08;11.50;;;;;;;;;;5070639;28;20048;-68
2022/04/26 03:46:25;;;;;;;19.00;10.05;;;;;;;;;;5070922;28;20055;-69
2022/04/26 03:49:30;;;;;;;19.15;9.98;;;;;;;;;;5070848;28;20060;-70
2022/04/26 03:52:34;;;;;;;19.50;10.15;;;;;;;;;;5070498;28;20519;-69
2022/04/26 03:55:39;;;;;;;17.63;10.38;;;;;;;;;;5070611;28;20052;-70
2022/04/26 03:58:43;;;;;;;17.23;9.13;;;;;;;;;;5070820;28;20047;-68
2022/04/26 04:01:48;;;;;;;18.90;10.15;;;;;;;;;;5070608;28;20051;-68
2022/04/26 04:04:52;;;;;;;24.13;10.27;;;;;;;;;;5070796;28;20036;-68
2022/04/26 04:07:56;;;;;;;18.27;9.65;;;;;;;;;;5069677;28;20055;-68
2022/04/26 04:11:01;;;;;;;16.90;9.40;;;;;;;;;;5070356;28;20035;-68
2022/04/26 04:14:05;;;;;;;17.33;9.27;;;;;;;;;;5070546;28;20040;-68
2022/04/26 04:17:10;;;;;;;21.83;9.52;;;;;;;;;;5070917;28;20044;-68
2022/04/26 04:20:15;;;;;;;21.40;9.13;;;;;;;;;;5070680;28;20043;-68
2022/04/26 04:23:21;;;;;;;18.63;9.52;;;;;;;;;;5070683;28;20495;-69
2022/04/26 04:26:25;;;;;;;17.20;9.70;;;;;;;;;;5069596;28;20047;-68
2022/04/26 04:29:29;;;;;;;19.27;9.60;;;;;;;;;;5070342;28;20043;-68
2022/04/26 04:32:34;;;;;;;14.23;8.95;;;;;;;;;;5070397;28;20047;-68
2022/04/26 04:35:38;;;;;;;17.35;10.15;;;;;;;;;;5070127;28;20067;-68
2022/04/26 04:38:42;;;;;;;19.40;9.48;;;;;;;;;;5069362;28;20611;-68
2022/04/26 04:41:47;;;;;;;21.33;10.50;;;;;;;;;;5070090;28;20107;-69
2022/04/26 04:44:51;;;;;;;14.60;9.30;;;;;;;;;;5070308;28;20044;-68
2022/04/26 04:47:56;;;;;;;14.85;9.18;;;;;;;;;;5070082;28;20043;-69
2022/04/26 04:51:00;;;;;;;14.32;9.68;;;;;;;;;;5069524;28;20048;-69
2022/04/26 04:54:04;;;;;;;16.10;8.95;;;;;;;;;;5070121;28;20055;-69
2022/04/26 04:57:09;;;;;;;20.77;9.32;;;;;;;;;;5069871;28;20622;-69
2022/04/26 05:00:15;;;;;;;22.50;8.73;;;;;;;;;;5070119;28;20035;-69
2022/04/26 05:03:19;;;;;;;14.75;8.55;;;;;;;;;;5070355;28;20496;-69
2022/04/26 05:06:24;;;;;;;20.05;8.45;;;;;;;;;;5069991;28;20047;-69
2022/04/26 05:09:28;;;;;;;17.45;8.27;;;;;;;;;;5072252;28;20393;-69
2022/04/26 05:12:33;;;;;;;20.95;9.40;;;;;;;;;;5073275;28;20051;-69
2022/04/26 05:15:38;;;;;;;18.60;9.48;;;;;;;;;;5073830;28;20051;-69
2022/04/26 05:18:42;;;;;;;22.38;10.27;;;;;;;;;;5073367;28;20392;-68
2022/04/26 05:21:47;;;;;;;19.30;10.18;;;;;;;;;;5073385;28;20067;-69
2022/04/26 05:24:54;;;;;;;17.80;9.15;;;;;;;;;;5073306;28;20515;-69
2022/04/26 05:27:58;;;;;;;18.88;9.43;;;;;;;;;;5073376;28;20051;-69
2022/04/26 05:31:03;;;;;;;23.38;9.20;;;;;;;;;;5073515;28;20044;-69
2022/04/26 05:34:08;;;;;;;21.67;9.82;;;;;;;;;;5073382;28;20416;-67
2022/04/26 05:37:12;;;;;;;18.38;9.43;;;;;;;;;;5073135;28;20043;-67
2022/04/26 05:40:17;;;;;;;20.83;8.98;;;;;;;;;;5072454;28;20047;-67
2022/04/26 05:43:22;;;;;;;17.38;8.15;;;;;;;;;;5072923;28;20051;-67
2022/04/26 05:46:26;;;;;;;20.25;8.30;;;;;;;;;;5073089;28;20044;-67
2022/04/26 05:49:31;;;;;;;17.75;7.85;;;;;;;;;;5072744;28;20044;-67
2022/04/26 05:52:35;;;;;;;15.65;7.30;;;;;;;;;;5072775;28;20417;-67
2022/04/26 05:55:39;;;;;;;18.98;7.70;;;;;;;;;;5073061;28;20048;-67
2022/04/26 05:58:44;;;;;;;12.60;7.68;;;;;;;;;;5072955;28;20044;-68
2022/04/26 06:01:48;;;;;;;24.35;9.60;;;;;;;;;;5071760;28;20044;-67
2022/04/26 06:04:52;;;;;;;21.10;8.98;;;;;;;;;;5072835;28;20044;-68
2022/04/26 06:07:57;;;;;;;19.02;10.30;;;;;;;;;;5071342;28;20052;-69
2022/04/26 06:11:01;;;;;;;20.08;9.70;;;;;;;;;;5072573;28;20491;-69
2022/04/26 06:14:05;;;;;;;19.17;9.68;;;;;;;;;;5072085;28;20060;-68
2022/04/26 06:17:10;;;;;;;21.90;10.20;;;;;;;;;;5072264;28;20063;-67
2022/04/26 06:20:14;;;;;;;16.20;9.93;;;;;;;;;;5071275;28;20067;-68
2022/04/26 06:23:19;;;;;;;14.10;8.27;;;;;;;;;;5072054;28;20047;-68
2022/04/26 06:26:24;;;;;;;18.55;8.77;;;;;;;;;;5072232;28;20492;-68
2022/04/26 06:29:29;;;;;;;14.90;6.88;;;;;;;;;;5071517;28;20400;-67
2022/04/26 06:32:33;;;;;;;16.05;7.80;;;;;;;;;;5071973;28;20071;-66
2022/04/26 06:35:38;;;;;;;25.45;7.30;;;;;;;;;;5071140;28;20047;-66
2022/04/26 06:38:42;;;;;;;22.58;6.15;;;;;;;;;;5071865;28;20051;-67
2022/04/26 06:41:47;;;;;;;23.92;6.05;;;;;;;;;;5071501;28;20063;-68
2022/04/26 06:44:52;;;;;;;15.02;5.95;;;;;;;;;;5071889;28;20048;-68
2022/04/26 06:47:58;;;;;;;16.02;5.53;;;;;;;;;;5071509;28;20044;-69
2022/04/26 06:51:03;;;;;;;15.38;5.55;;;;;;;;;;5071891;28;20051;-69
2022/04/26 06:54:07;;;;;;;12.07;5.60;;;;;;;;;;5071698;28;20052;-68
2022/04/26 06:57:12;;;;;;;15.13;5.18;;;;;;;;;;5071884;28;20052;-69
2022/04/26 07:00:16;;;;;;;17.92;6.30;;;;;;;;;;5071570;28;20059;-69
2022/04/26 07:03:20;;;;;;;17.13;6.88;;;;;;;;;;5071398;28;20216;-68
2022/04/26 07:06:25;;;;;;;15.10;6.10;;;;;;;;;;5069902;28;20056;-68
2022/04/26 07:09:29;;;;;;;17.20;6.57;;;;;;;;;;5071417;28;20051;-68
2022/04/26 07:12:34;;;;;;;28.35;7.63;;;;;;;;;;5071163;28;20055;-67
2022/04/26 07:15:38;;;;;;;14.65;6.30;;;;;;;;;;5070897;28;20194;-67
2022/04/26 07:18:42;;;;;;;12.90;6.45;;;;;;;;;;5071306;28;20055;-68
2022/04/26 07:21:48;;;;;;;17.58;6.72;;;;;;;;;;5072499;28;20059;-67
2022/04/26 07:24:52;;;;;;;20.95;6.72;;;;;;;;;;5071208;28;20047;-69
2022/04/26 07:27:56;;;;;;;21.48;7.28;;;;;;;;;;5071302;28;20047;-68
2022/04/26 07:31:01;;;;;;;19.48;7.30;;;;;;;;;;5070295;28;20539;-67
2022/04/26 07:34:20;;;;;;;13.93;6.50;;;;;;;;;;5071078;28;20400;-67
2022/04/26 07:37:24;;;;;;;24.77;6.82;;;;;;;;;;5071220;28;20063;-68
2022/04/26 07:40:29;;;;;;;20.13;7.45;;;;;;;;;;5058465;28;20048;-67
2022/04/26 07:43:33;;;;;;;15.98;7.75;;;;;;;;;;5071067;28;20059;-67
2022/04/26 07:46:37;;;;;;;17.15;6.22;;;;;;;;;;5070377;28;20404;-68
2022/04/26 07:49:42;;;;;;;14.55;6.05;;;;;;;;;;5071194;28;20051;-68
2022/04/26 07:52:46;;;;;;;13.75;6.05;;;;;;;;;;5071149;28;20075;-71
2022/04/26 07:55:50;;;;;;;15.30;6.65;;;;;;;;;;5070655;28;20039;-67
2022/04/26 07:58:58;;;;;;;14.68;6.07;;;;;;;;;;5070930;28;20503;-66
2022/04/26 08:02:02;;;;;;;14.40;5.95;;;;;;;;;;5070804;28;20036;-66
2022/04/26 08:05:06;;;;;;;13.63;5.80;;;;;;;;;;5071224;28;20055;-67
2022/04/26 08:08:11;;;;;;;21.02;7.05;;;;;;;;;;5070556;28;20051;-67
2022/04/26 08:11:15;;;;;;;12.05;5.20;;;;;;;;;;5070379;28;20423;-66
2022/04/26 08:14:20;;;;;;;14.48;5.68;;;;;;;;;;5070838;28;20051;-66
2022/04/26 08:17:25;;;;;;;17.88;5.68;;;;;;;;;;5069608;28;20048;-67
2022/04/26 08:20:29;;;;;;;11.57;4.97;;;;;;;;;;5070310;28;20511;-67
2022/04/26 08:27:22;;;;;;;9.93;5.00;;;;;;;;;;5070423;28;20369;-65
2022/04/26 08:30:23;;;;;;;16.25;4.57;;;;;;;;;;5070740;28;20051;-66
2022/04/26 08:33:30;;;;;;;14.85;4.80;;;;;;;;;;5069349;28;20533;-66
2022/04/26 08:36:34;;;;;;;15.15;4.20;;;;;;;;;;5070430;28;20059;-67
2022/04/26 08:39:38;;;;;;;16.35;5.22;;;;;;;;;;5069948;28;20055;-67
2022/04/26 08:42:46;;;;;;;16.90;4.70;;;;;;;;;;5069367;28;20511;-66
2022/04/26 08:45:52;;;;;;;9.30;4.32;;;;;;;;;;5073907;28;20047;-66
2022/04/26 08:52:19;;;;;;;13.20;4.45;;;;;;;;;;5072894;28;20126;-67
2022/04/26 08:55:23;;;;;;;9.00;3.95;;;;;;;;;;5073656;28;20039;-67
2022/04/26 08:58:31;;;;;;;8.20;3.25;;;;;;;;;;5073864;28;20044;-66
2022/04/26 09:01:35;;;;;;;12.48;4.65;;;;;;;;;;5073402;28;20040;-66
2022/04/26 09:04:39;;;;;;;8.70;3.97;;;;;;;;;;5073407;28;20051;-66
2022/04/26 09:07:47;;;;;;;14.63;4.35;;;;;;;;;;5073012;28;20044;-66
2022/04/26 09:10:52;;;;;;;10.68;3.45;;;;;;;;;;5073668;28;20043;-66
2022/04/26 09:13:56;;;;;;;13.00;3.40;;;;;;;;;;5073374;28;20058;-67
2022/04/26 09:17:11;;;;;;;12.25;3.78;;;;;;;;;;5073381;28;20404;-66
2022/04/26 09:20:31;;;;;;;11.75;4.20;;;;;;;;;;5073377;28;20040;-66
2022/04/26 09:23:38;;;;;;;10.82;5.75;;;;;;;;;;5073532;28;20397;-66
2022/04/26 09:26:42;;;;;;;21.00;5.43;;;;;;;;;;5073515;28;20051;-66
2022/04/26 09:29:47;;;;;;;14.82;4.90;;;;;;;;;;5073540;28;20067;-66
2022/04/26 09:32:51;;;;;;;17.85;5.10;;;;;;;;;;5073221;28;20051;-66
2022/04/26 09:36:03;;;;;;;12.15;4.82;;;;;;;;;;5072619;28;20039;-66
2022/04/26 09:39:09;;;;;;;11.02;4.32;;;;;;;;;;5073178;28;20059;-67
2022/04/26 09:42:13;;;;;;;7.55;4.30;;;;;;;;;;5072889;28;20051;-67
2022/04/26 09:45:17;;;;;;;8.65;3.45;;;;;;;;;;5073248;28;20370;-69
2022/04/26 09:48:28;;;;;;;6.95;2.92;;;;;;;;;;5072971;28;20037;-68
2022/04/26 09:51:33;;;;;;;9.40;3.35;;;;;;;;;;5072804;28;20037;-68
2022/04/26 09:54:37;;;;;;;11.32;4.25;;;;;;;;;;5060226;28;20048;-68
2022/04/26 09:57:43;;;;;;;6.07;3.10;;;;;;;;;;5072560;28;20039;-68
2022/04/26 10:00:49;;;;;;;11.27;4.28;;;;;;;;;;5073117;28;20040;-67
2022/04/26 10:03:57;;;;;;;8.07;3.40;;;;;;;;;;5072669;28;20043;-68
2022/04/26 10:07:08;;;;;;;9.27;3.33;;;;;;;;;;5072278;28;20056;-67
2022/04/26 10:10:13;;;;;;;12.43;3.90;;;;;;;;;;5072619;28;20037;-66
2022/04/26 10:13:34;;;;;;;13.80;4.47;;;;;;;;;;5072292;28;20059;-67
2022/04/26 10:16:39;;;;;;;9.50;3.75;;;;;;;;;;5072591;28;20059;-67
2022/04/26 10:19:44;;;;;;;13.15;4.35;;;;;;;;;;5072070;28;20610;-69
2022/04/26 10:22:54;;;;;;;11.95;4.25;;;;;;;;;;5072042;28;20222;-66
2022/04/26 10:29:26;;;;;;;7.68;2.67;;;;;;;;;;5072075;28;20043;-67
2022/04/26 10:32:30;;;;;;;9.18;2.88;;;;;;;;;;5071590;28;20045;-68
2022/04/26 10:35:36;;;;;;;6.05;2.90;;;;;;;;;;5070944;28;20045;-68
2022/04/26 10:38:41;;;;;;;5.35;3.30;;;;;;;;;;5071504;28;20040;-68
2022/04/26 10:41:46;;;;;;;5.13;2.78;;;;;;;;;;5071340;28;20048;-67
2022/04/26 10:44:50;;;;;;;7.55;3.00;;;;;;;;;;5070444;28;20040;-67
2022/04/26 10:47:54;;;;;;;5.90;2.85;;;;;;;;;;5071565;28;20481;-67
2022/04/26 10:51:18;;;;;;;9.80;3.40;;;;;;;;;;5071876;28;20052;-71
2022/04/26 10:54:41;;;;;;;7.13;3.08;;;;;;;;;;5071507;28;20037;-68
2022/04/26 10:57:46;;;;;;;9.43;3.97;;;;;;;;;;5071572;28;20103;-66
2022/04/26 11:00:51;;;;;;;11.07;3.88;;;;;;;;;;5071424;28;20040;-67
2022/04/26 11:03:56;;;;;;;10.52;3.15;;;;;;;;;;5070552;28;20047;-66
2022/04/26 11:07:10;;;;;;;9.82;4.00;;;;;;;;;;5070008;28;20056;-66
2022/04/26 11:10:15;;;;;;;10.93;4.25;;;;;;;;;;5070134;28;20290;-65
2022/04/26 11:13:20;;;;;;;10.77;4.78;;;;;;;;;;5070785;28;20051;-66
2022/04/26 11:16:25;;;;;;;9.40;3.58;;;;;;;;;;5071431;28;20503;-66
2022/04/26 11:19:31;;;;;;;8.90;4.10;;;;;;;;;;5071136;28;20037;-66
2022/04/26 11:22:42;;;;;;;9.55;4.07;;;;;;;;;;5071108;28;20040;-65
2022/04/26 11:29:26;;;;;;;12.82;5.40;;;;;;;;;;5071195;28;20055;-65
2022/04/26 11:32:30;;;;;;;;;;;;;;;;;;5071612;28;20056;-65
2022/04/26 11:35:39;;;;;;;15.27;6.30;;;;;;;;;;5071396;28;19915;-65
2022/04/26 11:38:43;;;;;;;13.60;5.28;;;;;;;;;;5071159;28;20036;-65
2022/04/26 11:41:47;;;;;;;16.48;6.32;;;;;;;;;;5071142;28;20138;-65
2022/04/26 11:45:05;;;;;;;13.02;6.35;;;;;;;;;;5071013;28;20044;-65
2022/04/26 11:48:11;;;;;;;15.10;6.72;;;;;;;;;;5070986;28;20511;-65
2022/04/26 11:51:15;;;;;;;14.57;6.85;;;;;;;;;;5070610;28;20044;-65
2022/04/26 11:54:35;;;;;;;15.38;6.57;;;;;;;;;;5070620;28;20071;-65
2022/04/26 11:57:39;;;;;;;14.10;5.97;;;;;;;;;;5070945;28;20435;-65
2022/04/26 12:00:53;;;;;;;11.20;6.25;;;;;;;;;;5071085;28;20063;-65
2022/04/26 12:03:59;;;;;;;16.35;7.05;;;;;;;;;;5070918;28;20049;-65
2022/04/26 12:07:03;;;;;;;15.25;6.47;;;;;;;;;;5070588;28;20051;-64
2022/04/26 12:10:28;;;;;;;16.17;7.00;;;;;;;;;;5070886;28;20403;-65
2022/04/26 12:13:33;;;;;;;16.55;6.85;;;;;;;;;;5070514;28;20051;-66
2022/04/26 12:16:42;;;;;;;19.30;8.23;;;;;;;;;;5070615;28;20522;-66
2022/04/26 12:19:50;;;;;;;12.27;6.75;;;;;;;;;;5074912;28;20044;-68
2022/04/26 12:22:54;;;;;;;18.05;6.55;;;;;;;;;;5074197;28;20055;-67
2022/04/26 12:26:02;;;;;;;14.32;6.93;;;;;;;;;;5074091;28;20107;-67
2022/04/26 12:29:13;;;;;;;14.52;6.65;;;;;;;;;;5074748;28;20412;-68
2022/04/26 12:32:18;;;;;;;14.13;6.22;;;;;;;;;;5074325;28;20035;-68
2022/04/26 12:35:23;;;;;;;15.57;6.95;;;;;;;;;;5074080;28;20047;-68
2022/04/26 12:38:27;;;;;;;17.17;6.60;;;;;;;;;;5073549;28;20129;-68
2022/04/26 12:41:46;;;;;;;12.52;5.70;;;;;;;;;;5073737;28;20059;-68
2022/04/26 12:44:55;;;;;;;17.17;5.53;;;;;;;;;;5071952;28;20043;-68
2022/04/26 12:51:30;;;;;;;18.02;6.15;;;;;;;;;;5073309;28;20059;-67
2022/04/26 12:54:34;;;;;;;15.02;5.45;;;;;;;;;;5073169;28;20052;-68
2022/04/26 12:57:48;;;;;;;18.98;6.43;;;;;;;;;;5073875;28;20051;-68
2022/04/26 13:00:52;;;;;;;13.57;5.45;;;;;;;;;;5073692;28;20052;-68
2022/04/26 13:03:58;;;;;;;10.95;4.80;;;;;;;;;;5073498;28;20055;-66
2022/04/26 13:07:02;;;;;;;11.63;5.10;;;;;;;;;;5073270;28;20064;-67
2022/04/26 13:10:07;;;;;;;15.38;5.95;;;;;;;;;;5073864;28;20047;-67
2022/04/26 13:13:11;;;;;;;15.85;5.63;;;;;;;;;;5073431;28;20059;-67
2022/04/26 13:16:16;;;;;;;11.30;4.55;;;;;;;;;;5073579;28;20051;-68
2022/04/26 13:19:21;;;;;;;14.68;5.07;;;;;;;;;;5073439;28;20051;-68
2022/04/26 13:22:26;;;;;;;19.45;6.07;;;;;;;;;;5073339;28;20052;-67
2022/04/26 13:25:30;;;;;;;23.65;5.68;;;;;;;;;;5073390;28;20047;-68
2022/04/26 13:28:34;;;;;;;13.75;5.40;;;;;;;;;;5072591;28;20067;-68
2022/04/26 13:31:39;;;;;;;13.80;4.50;;;;;;;;;;5073368;28;20064;-69
2022/04/26 13:34:47;;;;;;;9.65;4.50;;;;;;;;;;5073154;28;20062;-67
2022/04/26 13:37:52;;;;;;;11.07;4.88;;;;;;;;;;5072874;28;20036;-68
2022/04/26 13:40:57;;;;;;;17.88;6.47;;;;;;;;;;5072717;28;20047;-67
2022/04/26 13:44:02;;;;;;;10.88;4.35;;;;;;;;;;5072980;28;20389;-68
2022/04/26 13:47:06;;;;;;;21.15;6.75;;;;;;;;;;5072784;28;20049;-69
2022/04/26 13:50:11;;;;;;;12.55;4.07;;;;;;;;;;5071944;28;20043;-69
2022/04/26 13:53:15;;;;;;;9.80;3.60;;;;;;;;;;5072934;28;20055;-68
2022/04/26 13:56:20;;;;;;;17.48;4.00;;;;;;;;;;5072657;28;20037;-68
2022/04/26 13:59:26;;;;;;;8.32;3.08;;;;;;;;;;5072074;28;20077;-66
2022/04/26 14:02:30;;;;;;;16.95;5.72;;;;;;;;;;5071990;28;20037;-68
2022/04/26 14:05:35;;;;;;;8.48;3.50;;;;;;;;;;5072635;28;20047;-68
2022/04/26 14:08:40;;;;;;;14.07;4.13;;;;;;;;;;5072075;28;20049;-67
2022/04/26 14:11:48;;;;;;;21.10;5.30;;;;;;;;;;5071486;28;20047;-67
2022/04/26 14:21:47;;;;;;;24.52;3.70;;;;;;;;;;5071695;28;20047;-67
2022/04/26 14:24:53;;;;;;;19.10;5.68;;;;;;;;;;5071500;28;20047;-68
2022/04/26 14:27:58;;;;;;;31.52;5.97;;;;;;;;;;5071272;28;20067;-67
2022/04/26 14:31:02;;;;;;;29.77;6.32;;;;;;;;;;5071380;28;20056;-68
2022/04/26 14:34:07;;;;;;;45.53;8.07;;;;;;;;;;5071592;28;20067;-67
2022/04/26 14:37:12;;;;;;;26.00;5.35;;;;;;;;;;5071160;28;20147;-66
2022/04/26 14:40:17;;;;;;;7.47;3.00;;;;;;;;;;5071573;28;20369;-66
2022/04/26 14:43:21;;;;;;;6.20;3.10;;;;;;;;;;5071157;28;20040;-66
2022/04/26 14:46:25;;;;;;;8.15;3.25;;;;;;;;;;5071408;28;20045;-66
2022/04/26 14:49:30;;;;;;;16.30;3.88;;;;;;;;;;5071380;28;20036;-65
2022/04/26 14:52:36;;;;;;;23.88;4.13;;;;;;;;;;5071441;28;20071;-66
2022/04/26 14:55:41;;;;;;;28.10;4.82;;;;;;;;;;5071165;28;20051;-67
2022/04/26 14:58:46;;;;;;;33.08;5.00;;;;;;;;;;5070894;28;20043;-66
2022/04/26 15:01:51;;;;;;;9.05;2.78;;;;;;;;;;5071248;28;20043;-66
2022/04/26 15:04:55;;;;;;;9.32;3.35;;;;;;;;;;5070291;28;20040;-66
2022/04/26 15:11:23;;;;;;;25.17;4.47;;;;;;;;;;5070686;28;20396;-66
2022/04/26 15:17:50;;;;;;;8.73;2.25;;;;;;;;;;5070452;28;20040;-66
2022/04/26 15:20:54;;;;;;;18.42;2.85;;;;;;;;;;5071298;28;20044;-66
2022/04/26 15:24:00;;;;;;;85.55;6.10;;;;;;;;;;5071039;28;20052;-67
2022/04/26 15:27:05;;;;;;;13.10;2.60;;;;;;;;;;5070411;28;20644;-66
2022/04/26 15:30:10;;;;;;;25.10;4.07;;;;;;;;;;5070279;28;20515;-66
2022/04/26 15:33:14;;;;;;;23.15;3.25;;;;;;;;;;5070708;28;20055;-66
2022/04/26 15:36:19;;;;;;;12.13;3.00;;;;;;;;;;5070751;28;20059;-66
2022/04/26 15:39:25;;;;;;;7.78;2.22;;;;;;;;;;5070309;28;20056;-65
2022/04/26 15:42:33;;;;;;;8.82;3.10;;;;;;;;;;5070688;28;20040;-65
2022/04/26 15:45:38;;;;;;;5.20;2.45;;;;;;;;;;5070624;28;20032;-66
2022/04/26 15:48:47;;;;;;;10.77;2.53;;;;;;;;;;5070403;28;20389;-66
2022/04/26 15:51:54;;;;;;;8.23;2.80;;;;;;;;;;5070355;28;20055;-67
2022/04/26 15:54:58;;;;;;;6.45;2.67;;;;;;;;;;5070123;28;20049;-66
2022/04/26 15:58:03;;;;;;;5.72;2.35;;;;;;;;;;5069871;28;20033;-65
2022/04/26 16:01:07;;;;;;;10.27;3.97;;;;;;;;;;5070629;28;20045;-66
2022/04/26 16:04:12;;;;;;;8.55;3.53;;;;;;;;;;5069957;28;20143;-66
2022/04/26 16:07:17;;;;;;;6.72;2.58;;;;;;;;;;5070461;28;20052;-67
2022/04/26 16:20:31;;;;;;;6.38;3.03;;;;;;;;;;5070222;28;20044;-66
2022/04/26 16:23:35;;;;;;;7.20;3.35;;;;;;;;;;5070201;28;20044;-67
2022/04/26 16:26:39;;;;;;;5.18;2.38;;;;;;;;;;5070347;28;20044;-66
2022/04/26 16:29:46;;;;;;;9.10;3.60;;;;;;;;;;5070389;28;20401;-66
2022/04/26 16:32:50;;;;;;;9.60;2.70;;;;;;;;;;5069522;28;20373;-68
2022/04/26 16:35:55;;;;;;;4.75;2.70;;;;;;;;;;5070426;28;20049;-68
2022/04/26 16:38:59;;;;;;;10.10;4.05;;;;;;;;;;5070082;28;20036;-68
2022/04/26 16:42:04;;;;;;;9.45;3.10;;;;;;;;;;5069654;28;20039;-67
2022/04/26 16:45:09;;;;;;;13.43;3.28;;;;;;;;;;5069938;28;20040;-69
2022/04/26 16:48:14;;;;;;;7.90;4.05;;;;;;;;;;5057441;28;20059;-68
2022/04/26 16:51:20;;;;;;;11.40;3.65;;;;;;;;;;5069534;28;20045;-68
2022/04/26 16:54:25;;;;;;;9.55;3.28;;;;;;;;;;5069544;28;20071;-69
2022/04/26 16:57:29;;;;;;;10.18;3.67;;;;;;;;;;5069881;28;20048;-68
2022/04/26 17:00:34;;;;;;;11.48;4.05;;;;;;;;;;5069793;28;20055;-69
2022/04/26 17:03:38;;;;;;;15.00;3.80;;;;;;;;;;5070127;28;20047;-69
2022/04/26 17:06:42;;;;;;;12.25;4.20;;;;;;;;;;5073668;28;20051;-77
2022/04/26 17:09:47;;;;;;;19.05;3.30;;;;;;;;;;5073595;28;20048;-75
2022/04/26 17:12:52;;;;;;;14.13;3.80;;;;;;;;;;5072887;28;20043;-73
2022/04/26 17:15:56;;;;;;;10.95;3.45;;;;;;;;;;5072850;28;20546;-72
2022/04/26 17:19:00;;;;;;;16.67;3.58;;;;;;;;;;5073150;28;20045;-71
2022/04/26 17:22:05;;;;;;;12.70;3.97;;;;;;;;;;5072902;28;20039;-71
2022/04/26 17:25:16;;;;;;;12.88;5.20;;;;;;;;;;5072457;28;20503;-72
2022/04/26 17:28:22;;;;;;;11.55;4.10;;;;;;;;;;5073361;28;20400;-73
2022/04/26 17:31:27;;;;;;;17.48;4.30;;;;;;;;;;5073098;28;20043;-72
2022/04/26 17:34:31;;;;;;;14.32;4.03;;;;;;;;;;5073070;28;20055;-71
2022/04/26 17:37:37;;;;;;;14.82;4.35;;;;;;;;;;5073287;28;20507;-71
2022/04/26 17:40:41;;;;;;;10.10;3.63;;;;;;;;;;5073217;28;20051;-71
2022/04/26 17:43:46;;;;;;;15.13;3.90;;;;;;;;;;5072972;28;20052;-72
2022/04/26 17:46:52;;;;;;;9.10;3.63;;;;;;;;;;5072974;28;20051;-72
2022/04/26 17:50:00;;;;;;;11.63;3.30;;;;;;;;;;5073746;28;20048;-72
2022/04/26 17:56:32;;;;;;;8.38;3.20;;;;;;;;;;5072764;28;20043;-72
2022/04/26 17:59:36;;;;;;;12.98;3.83;;;;;;;;;;5072895;28;20028;-73
2022/04/26 18:02:40;;;;;;;15.43;4.70;;;;;;;;;;5072649;28;20054;-72
2022/04/26 18:05:45;;;;;;;10.52;3.83;;;;;;;;;;5072946;28;20047;-73
2022/04/26 18:08:49;;;;;;;12.48;3.92;;;;;;;;;;5072092;28;20079;-73
2022/04/26 18:11:54;;;;;;;12.75;5.28;;;;;;;;;;5072195;28;20039;-72
2022/04/26 18:14:58;;;;;;;17.30;3.78;;;;;;;;;;5072161;28;20146;-71
2022/04/26 18:18:03;;;;;;;12.95;3.58;;;;;;;;;;5072191;28;20059;-72
2022/04/26 18:21:08;;;;;;;9.70;3.67;;;;;;;;;;5071478;28;20058;-72
2022/04/26 18:24:12;;;;;;;9.93;3.90;;;;;;;;;;5072129;28;20036;-72
2022/04/26 18:27:16;;;;;;;11.05;3.40;;;;;;;;;;5072399;28;20044;-71
2022/04/26 18:30:20;;;;;;;18.45;4.28;;;;;;;;;;5071957;28;20040;-72
2022/04/26 18:33:25;;;;;;;22.30;6.32;;;;;;;;;;5072223;28;20052;-72
2022/04/26 18:36:32;;;;;;;9.85;3.60;;;;;;;;;;5071958;28;20109;-73
2022/04/26 18:39:36;;;;;;;17.02;4.25;;;;;;;;;;5071884;28;20398;-73
2022/04/26 18:42:41;;;;;;;14.75;4.93;;;;;;;;;;5071503;28;20067;-72
2022/04/26 18:45:45;;;;;;;15.27;4.72;;;;;;;;;;5071903;28;20503;-72
2022/04/26 18:48:50;;;;;;;10.45;5.22;;;;;;;;;;5071792;28;20044;-72
2022/04/26 18:51:57;;;;;;;14.15;5.18;;;;;;;;;;5070831;28;20039;-72
2022/04/26 18:55:01;;;;;;;12.80;4.72;;;;;;;;;;5071517;28;20056;-73
2022/04/26 18:58:05;;;;;;;15.43;5.03;;;;;;;;;;5071655;28;20047;-72
2022/04/26 19:01:10;;;;;;;11.48;4.63;;;;;;;;;;5071797;28;20055;-72
2022/04/26 19:04:14;;;;;;;14.93;4.93;;;;;;;;;;5071501;28;20047;-72
2022/04/26 19:07:18;;;;;;;10.60;4.70;;;;;;;;;;5071137;28;20063;-73
2022/04/26 19:13:46;;;;;;;8.23;4.13;;;;;;;;;;5071404;28;20419;-72
2022/04/26 19:16:50;;;;;;;17.85;4.95;;;;;;;;;;5071371;28;20025;-71
2022/04/26 19:19:54;;;;;;;15.18;5.60;;;;;;;;;;5071220;28;20393;-71
2022/04/26 19:22:59;;;;;;;11.18;5.18;;;;;;;;;;5071513;28;20047;-72
2022/04/26 19:26:04;;;;;;;9.18;5.10;;;;;;;;;;5071065;28;20048;-72
2022/04/26 19:29:08;;;;;;;21.90;7.45;;;;;;;;;;5071415;28;20425;-72
2022/04/26 19:32:13;;;;;;;10.60;5.03;;;;;;;;;;5071744;28;20051;-71
2022/04/26 19:35:17;;;;;;;13.38;5.28;;;;;;;;;;5070193;28;20075;-71
2022/04/26 19:38:23;;;;;;;10.57;5.03;;;;;;;;;;5070988;28;20507;-71
2022/04/26 19:41:27;;;;;;;12.02;4.97;;;;;;;;;;5070888;28;20222;-71
2022/04/26 19:44:31;;;;;;;12.73;4.60;;;;;;;;;;5070192;28;20039;-71
2022/04/26 19:47:36;;;;;;;15.20;4.88;;;;;;;;;;5069861;28;20514;-72
2022/04/26 19:54:04;;;;;;;14.98;6.47;;;;;;;;;;5069827;28;20055;-72
2022/04/26 19:57:08;;;;;;;14.70;6.30;;;;;;;;;;5070650;28;20040;-72
2022/04/26 20:00:12;;;;;;;18.25;6.45;;;;;;;;;;5069500;28;20047;-72
2022/04/26 20:03:18;;;;;;;17.15;6.45;;;;;;;;;;5070811;28;20043;-71
2022/04/26 20:06:22;;;;;;;15.45;7.55;;;;;;;;;;5070635;28;20047;-71
2022/04/26 20:09:27;;;;;;;24.17;7.70;;;;;;;;;;5071003;28;20075;-71
2022/04/26 20:12:31;;;;;;;20.90;9.15;;;;;;;;;;5069287;28;20094;-71
2022/04/26 20:15:36;;;;;;;22.08;9.05;;;;;;;;;;5069304;28;20056;-74
2022/04/26 20:18:41;;;;;;;28.27;9.15;;;;;;;;;;5070081;28;20301;-72
2022/04/26 20:21:45;;;;;;;25.10;9.63;;;;;;;;;;5070404;28;20055;-72
2022/04/26 20:24:49;;;;;;;21.92;9.40;;;;;;;;;;5070555;28;20052;-72
2022/04/26 20:31:16;;;;;;;26.75;11.50;;;;;;;;;;5069646;28;20047;-71
2022/04/26 20:34:21;;;;;;;27.48;11.90;;;;;;;;;;5069593;28;20051;-72
2022/04/26 20:37:25;;;;;;;25.65;12.52;;;;;;;;;;5070527;28;20044;-72
2022/04/26 20:40:30;;;;;;;27.70;12.25;;;;;;;;;;5074187;28;20119;-72
2022/04/26 20:43:34;;;;;;;21.65;11.65;;;;;;;;;;5074393;28;20044;-72
2022/04/26 20:46:38;;;;;;;23.25;12.43;;;;;;;;;;5074345;28;20052;-71
2022/04/26 20:49:43;;;;;;;30.17;13.10;;;;;;;;;;5073722;28;20035;-71
2022/04/26 20:52:50;;;;;;;27.42;13.40;;;;;;;;;;5074171;28;20393;-71
2022/04/26 20:55:54;;;;;;;20.83;12.73;;;;;;;;;;5073292;28;20047;-72
2022/04/26 20:58:59;;;;;;;26.90;13.60;;;;;;;;;;5073859;28;20059;-71
2022/04/26 21:02:03;;;;;;;26.65;12.98;;;;;;;;;;5073903;28;20043;-71
2022/04/26 21:05:08;;;;;;;28.38;12.10;;;;;;;;;;5074063;28;20048;-71
2022/04/26 21:08:12;;;;;;;24.85;12.23;;;;;;;;;;5073440;28;20416;-71
2022/04/26 21:11:16;;;;;;;31.35;11.88;;;;;;;;;;5073787;28;20059;-71
2022/04/26 21:14:20;;;;;;;26.85;13.02;;;;;;;;;;5073348;28;20056;-71
2022/04/26 21:17:24;;;;;;;28.83;13.30;;;;;;;;;;5073393;28;20044;-71
2022/04/26 21:20:29;;;;;;;27.85;12.60;;;;;;;;;;5073168;28;20067;-71
2022/04/26 21:23:33;;;;;;;24.17;11.88;;;;;;;;;;5073755;28;20044;-71
2022/04/26 21:26:37;;;;;;;28.23;12.50;;;;;;;;;;5072781;28;20515;-71
2022/04/26 21:29:41;;;;;;;22.98;11.77;;;;;;;;;;5073134;28;20046;-71
2022/04/26 21:32:46;;;;;;;22.70;12.20;;;;;;;;;;5072803;28;20043;-70
2022/04/26 21:35:50;;;;;;;19.70;12.00;;;;;;;;;;5072281;28;20059;-71
2022/04/26 21:38:54;;;;;;;27.40;12.35;;;;;;;;;;5073357;28;20059;-72
2022/04/26 21:41:59;;;;;;;25.65;12.60;;;;;;;;;;5073405;28;20044;-71
2022/04/26 21:45:03;;;;;;;32.42;13.07;;;;;;;;;;5072392;28;20044;-73
2022/04/26 21:48:08;;;;;;;20.02;12.07;;;;;;;;;;5073238;28;20047;-72
2022/04/26 21:54:38;;;;;;;23.50;12.52;;;;;;;;;;5072839;28;20063;-72
2022/04/26 21:57:42;;;;;;;28.52;13.85;;;;;;;;;;5073282;28;20044;-72
2022/04/26 22:00:47;;;;;;;29.73;14.20;;;;;;;;;;5072962;28;20055;-72
2022/04/26 22:03:52;;;;;;;22.10;12.15;;;;;;;;;;5072988;28;20046;-72
2022/04/26 22:06:56;;;;;;;23.00;13.00;;;;;;;;;;5072907;28;20043;-72
2022/04/26 22:10:00;;;;;;;27.27;12.98;;;;;;;;;;5072951;28;20122;-72
2022/04/26 22:13:05;;;;;;;26.05;12.88;;;;;;;;;;5072754;28;20052;-72
2022/04/26 22:16:09;;;;;;;30.48;13.48;;;;;;;;;;5073342;28;20056;-70
2022/04/26 22:19:14;;;;;;;21.40;12.80;;;;;;;;;;5072936;28;20052;-70
2022/04/26 22:22:21;;;;;;;22.88;13.45;;;;;;;;;;5072850;28;20047;-71
2022/04/26 22:25:26;;;;;;;28.15;12.85;;;;;;;;;;5072727;28;20048;-71
2022/04/26 22:28:30;;;;;;;22.63;12.77;;;;;;;;;;5072478;28;20131;-71
2022/04/26 22:31:35;;;;;;;24.45;13.25;;;;;;;;;;5059838;28;20051;-71
2022/04/26 22:34:39;;;;;;;24.10;14.02;;;;;;;;;;5072384;28;20404;-71
2022/04/26 22:37:43;;;;;;;23.38;12.60;;;;;;;;;;5072393;28;20044;-71
2022/04/26 22:40:49;;;;;;;23.73;13.23;;;;;;;;;;5072137;28;20063;-71
2022/04/26 22:43:53;;;;;;;26.45;13.55;;;;;;;;;;5072334;28;20044;-71
2022/04/26 22:46:57;;;;;;;19.73;12.27;;;;;;;;;;5071777;28;20051;-71
2022/04/26 22:50:03;;;;;;;26.05;12.63;;;;;;;;;;5071918;28;20043;-72